sensor_id;sensor_type;location;lat;lon;timestamp;P1;durP1;ratioP1;P2;durP2;ratioP2
62687;SDS011;48752;51.056;17.056;2023-04-21T00:04:02;35.40;;;16.20;;
62687;SDS011;48752;51.056;17.056;2023-04-21T00:06:28;29.38;;;15.50;;
62687;SDS011;48752;51.056;17.056;2023-04-21T00:09:03;33.20;;;16.50;;
62687;SDS011;48752;51.056;17.056;2023-04-21T00:11:29;35.03;;;17.00;;
62687;SDS011;48752;51.056;17.056;2023-04-21T00:13:54;34.42;;;17.95;;
62687;SDS011;48752;51.056;17.056;2023-04-21T00:16:21;25.23;;;16.23;;
62687;SDS011;48752;51.056;17.056;2023-04-21T00:18:46;33.85;;;17.52;;
62687;SDS011;48752;51.056;17.056;2023-04-21T00:24:00;27.85;;;16.23;;
62687;SDS011;48752;51.056;17.056;2023-04-21T00:26:35;28.67;;;16.25;;
62687;SDS011;48752;51.056;17.056;2023-04-21T00:29:01;27.25;;;15.63;;
62687;SDS011;48752;51.056;17.056;2023-04-21T00:31:27;30.48;;;16.80;;
62687;SDS011;48752;51.056;17.056;2023-04-21T00:33:53;31.73;;;17.00;;
62687;SDS011;48752;51.056;17.056;2023-04-21T00:36:19;29.92;;;16.75;;
62687;SDS011;48752;51.056;17.056;2023-04-21T00:38:46;25.35;;;16.25;;
62687;SDS011;48752;51.056;17.056;2023-04-21T00:41:12;27.10;;;15.70;;
62687;SDS011;48752;51.056;17.056;2023-04-21T00:43:58;40.13;;;17.63;;
62687;SDS011;48752;51.056;17.056;2023-04-21T00:46:33;27.20;;;16.88;;
62687;SDS011;48752;51.056;17.056;2023-04-21T00:49:04;29.98;;;17.20;;
62687;SDS011;48752;51.056;17.056;2023-04-21T00:51:33;35.47;;;17.60;;
62687;SDS011;48752;51.056;17.056;2023-04-21T00:54:01;27.77;;;15.77;;
62687;SDS011;48752;51.056;17.056;2023-04-21T00:56:34;35.55;;;16.98;;
62687;SDS011;48752;51.056;17.056;2023-04-21T00:59:02;33.17;;;16.80;;
62687;SDS011;48752;51.056;17.056;2023-04-21T01:01:29;31.70;;;17.35;;
62687;SDS011;48752;51.056;17.056;2023-04-21T01:03:57;28.92;;;15.23;;
62687;SDS011;48752;51.056;17.056;2023-04-21T01:06:31;29.40;;;16.00;;
62687;SDS011;48752;51.056;17.056;2023-04-21T01:09:01;31.98;;;15.18;;
62687;SDS011;48752;51.056;17.056;2023-04-21T01:11:30;32.08;;;17.52;;
62687;SDS011;48752;51.056;17.056;2023-04-21T01:13:57;34.65;;;17.33;;
62687;SDS011;48752;51.056;17.056;2023-04-21T01:16:24;33.83;;;16.55;;
62687;SDS011;48752;51.056;17.056;2023-04-21T01:18:50;31.85;;;15.93;;
62687;SDS011;48752;51.056;17.056;2023-04-21T01:21:18;32.33;;;15.77;;
62687;SDS011;48752;51.056;17.056;2023-04-21T01:23:46;33.03;;;17.17;;
62687;SDS011;48752;51.056;17.056;2023-04-21T01:26:16;34.63;;;16.50;;
62687;SDS011;48752;51.056;17.056;2023-04-21T01:28:44;38.30;;;17.15;;
62687;SDS011;48752;51.056;17.056;2023-04-21T01:31:13;27.70;;;16.95;;
62687;SDS011;48752;51.056;17.056;2023-04-21T01:33:49;31.20;;;16.90;;
62687;SDS011;48752;51.056;17.056;2023-04-21T01:36:15;33.92;;;18.25;;
62687;SDS011;48752;51.056;17.056;2023-04-21T01:38:41;31.00;;;17.80;;
62687;SDS011;48752;51.056;17.056;2023-04-21T01:41:08;31.00;;;16.77;;
62687;SDS011;48752;51.056;17.056;2023-04-21T01:43:35;30.75;;;16.83;;
62687;SDS011;48752;51.056;17.056;2023-04-21T01:46:03;29.05;;;16.73;;
62687;SDS011;48752;51.056;17.056;2023-04-21T01:48:30;30.58;;;17.23;;
62687;SDS011;48752;51.056;17.056;2023-04-21T01:50:56;24.30;;;16.30;;
62687;SDS011;48752;51.056;17.056;2023-04-21T01:53:22;39.97;;;17.73;;
62687;SDS011;48752;51.056;17.056;2023-04-21T01:55:47;23.63;;;15.32;;
62687;SDS011;48752;51.056;17.056;2023-04-21T01:58:13;33.55;;;17.90;;
62687;SDS011;48752;51.056;17.056;2023-04-21T02:00:39;43.80;;;17.45;;
62687;SDS011;48752;51.056;17.056;2023-04-21T02:03:04;28.48;;;17.63;;
62687;SDS011;48752;51.056;17.056;2023-04-21T02:05:36;34.47;;;18.83;;
62687;SDS011;48752;51.056;17.056;2023-04-21T02:08:01;28.58;;;16.02;;
62687;SDS011;48752;51.056;17.056;2023-04-21T02:10:27;29.38;;;17.17;;
62687;SDS011;48752;51.056;17.056;2023-04-21T02:12:58;34.10;;;16.95;;
62687;SDS011;48752;51.056;17.056;2023-04-21T02:15:25;36.10;;;18.15;;
62687;SDS011;48752;51.056;17.056;2023-04-21T02:17:51;28.92;;;16.45;;
62687;SDS011;48752;51.056;17.056;2023-04-21T02:20:16;42.53;;;17.75;;
62687;SDS011;48752;51.056;17.056;2023-04-21T02:22:42;37.78;;;18.88;;
62687;SDS011;48752;51.056;17.056;2023-04-21T02:25:08;33.75;;;18.55;;
62687;SDS011;48752;51.056;17.056;2023-04-21T02:27:35;34.50;;;19.38;;
62687;SDS011;48752;51.056;17.056;2023-04-21T02:30:01;32.92;;;17.95;;
62687;SDS011;48752;51.056;17.056;2023-04-21T02:32:28;29.73;;;19.20;;
62687;SDS011;48752;51.056;17.056;2023-04-21T02:34:55;35.63;;;20.15;;
62687;SDS011;48752;51.056;17.056;2023-04-21T02:37:20;31.02;;;17.27;;
62687;SDS011;48752;51.056;17.056;2023-04-21T02:39:46;33.90;;;18.23;;
62687;SDS011;48752;51.056;17.056;2023-04-21T02:42:13;33.85;;;20.17;;
62687;SDS011;48752;51.056;17.056;2023-04-21T02:44:39;30.60;;;18.40;;
62687;SDS011;48752;51.056;17.056;2023-04-21T02:47:07;33.30;;;18.67;;
62687;SDS011;48752;51.056;17.056;2023-04-21T02:49:33;32.67;;;17.65;;
62687;SDS011;48752;51.056;17.056;2023-04-21T02:52:00;34.03;;;18.50;;
62687;SDS011;48752;51.056;17.056;2023-04-21T02:54:26;36.05;;;20.52;;
62687;SDS011;48752;51.056;17.056;2023-04-21T02:56:52;36.20;;;20.75;;
62687;SDS011;48752;51.056;17.056;2023-04-21T02:59:19;36.85;;;20.05;;
62687;SDS011;48752;51.056;17.056;2023-04-21T03:01:45;45.45;;;20.98;;
62687;SDS011;48752;51.056;17.056;2023-04-21T03:04:13;38.05;;;20.17;;
62687;SDS011;48752;51.056;17.056;2023-04-21T03:06:38;35.03;;;20.23;;
62687;SDS011;48752;51.056;17.056;2023-04-21T03:09:04;37.08;;;21.83;;
62687;SDS011;48752;51.056;17.056;2023-04-21T03:11:31;36.00;;;21.13;;
62687;SDS011;48752;51.056;17.056;2023-04-21T03:13:57;37.88;;;21.23;;
62687;SDS011;48752;51.056;17.056;2023-04-21T03:16:24;40.03;;;20.88;;
62687;SDS011;48752;51.056;17.056;2023-04-21T03:18:50;42.35;;;21.42;;
62687;SDS011;48752;51.056;17.056;2023-04-21T03:21:16;41.33;;;21.58;;
62687;SDS011;48752;51.056;17.056;2023-04-21T03:23:43;46.50;;;21.67;;
62687;SDS011;48752;51.056;17.056;2023-04-21T03:26:08;42.78;;;22.30;;
62687;SDS011;48752;51.056;17.056;2023-04-21T03:28:35;43.97;;;21.27;;
62687;SDS011;48752;51.056;17.056;2023-04-21T03:31:01;35.95;;;20.80;;
62687;SDS011;48752;51.056;17.056;2023-04-21T03:33:34;36.40;;;20.67;;
62687;SDS011;48752;51.056;17.056;2023-04-21T03:36:01;42.20;;;20.80;;
62687;SDS011;48752;51.056;17.056;2023-04-21T03:38:30;41.60;;;20.15;;
62687;SDS011;48752;51.056;17.056;2023-04-21T03:40:57;39.70;;;21.10;;
62687;SDS011;48752;51.056;17.056;2023-04-21T03:43:23;40.17;;;21.02;;
62687;SDS011;48752;51.056;17.056;2023-04-21T03:45:48;43.47;;;21.55;;
62687;SDS011;48752;51.056;17.056;2023-04-21T03:48:15;42.45;;;21.73;;
62687;SDS011;48752;51.056;17.056;2023-04-21T03:50:40;48.90;;;21.65;;
62687;SDS011;48752;51.056;17.056;2023-04-21T03:53:06;42.67;;;21.75;;
62687;SDS011;48752;51.056;17.056;2023-04-21T03:55:33;40.03;;;21.77;;
62687;SDS011;48752;51.056;17.056;2023-04-21T03:57:59;36.33;;;19.70;;
62687;SDS011;48752;51.056;17.056;2023-04-21T04:00:25;40.42;;;20.95;;
62687;SDS011;48752;51.056;17.056;2023-04-21T04:02:51;43.20;;;21.92;;
62687;SDS011;48752;51.056;17.056;2023-04-21T04:05:16;40.15;;;21.40;;
62687;SDS011;48752;51.056;17.056;2023-04-21T04:07:43;34.72;;;19.63;;
62687;SDS011;48752;51.056;17.056;2023-04-21T04:10:10;40.53;;;21.10;;
62687;SDS011;48752;51.056;17.056;2023-04-21T04:12:36;38.42;;;22.73;;
62687;SDS011;48752;51.056;17.056;2023-04-21T04:15:01;39.80;;;22.85;;
62687;SDS011;48752;51.056;17.056;2023-04-21T04:17:28;35.67;;;21.10;;
62687;SDS011;48752;51.056;17.056;2023-04-21T04:19:54;42.55;;;21.92;;
62687;SDS011;48752;51.056;17.056;2023-04-21T04:22:20;35.03;;;20.17;;
62687;SDS011;48752;51.056;17.056;2023-04-21T04:24:47;36.15;;;21.30;;
62687;SDS011;48752;51.056;17.056;2023-04-21T04:27:12;44.20;;;20.45;;
62687;SDS011;48752;51.056;17.056;2023-04-21T04:29:38;68.28;;;30.63;;
62687;SDS011;48752;51.056;17.056;2023-04-21T04:32:07;44.50;;;22.88;;
62687;SDS011;48752;51.056;17.056;2023-04-21T04:34:35;52.42;;;22.38;;
62687;SDS011;48752;51.056;17.056;2023-04-21T04:37:02;47.15;;;23.27;;
62687;SDS011;48752;51.056;17.056;2023-04-21T04:39:29;40.22;;;22.50;;
62687;SDS011;48752;51.056;17.056;2023-04-21T04:41:56;41.70;;;23.25;;
62687;SDS011;48752;51.056;17.056;2023-04-21T04:44:22;46.33;;;24.70;;
62687;SDS011;48752;51.056;17.056;2023-04-21T04:46:50;56.75;;;23.23;;
62687;SDS011;48752;51.056;17.056;2023-04-21T04:49:17;42.20;;;22.30;;
62687;SDS011;48752;51.056;17.056;2023-04-21T04:51:43;65.05;;;25.55;;
62687;SDS011;48752;51.056;17.056;2023-04-21T04:54:09;39.08;;;22.60;;
62687;SDS011;48752;51.056;17.056;2023-04-21T04:56:34;48.90;;;23.13;;
62687;SDS011;48752;51.056;17.056;2023-04-21T04:59:02;45.47;;;20.80;;
62687;SDS011;48752;51.056;17.056;2023-04-21T05:01:27;51.42;;;20.40;;
62687;SDS011;48752;51.056;17.056;2023-04-21T05:03:55;37.83;;;20.75;;
62687;SDS011;48752;51.056;17.056;2023-04-21T05:06:21;41.35;;;19.02;;
62687;SDS011;48752;51.056;17.056;2023-04-21T05:08:50;38.42;;;21.35;;
62687;SDS011;48752;51.056;17.056;2023-04-21T05:11:16;43.72;;;22.60;;
62687;SDS011;48752;51.056;17.056;2023-04-21T05:13:41;49.58;;;23.65;;
62687;SDS011;48752;51.056;17.056;2023-04-21T05:16:09;42.40;;;21.98;;
62687;SDS011;48752;51.056;17.056;2023-04-21T05:18:36;36.10;;;20.50;;
62687;SDS011;48752;51.056;17.056;2023-04-21T05:21:02;39.45;;;19.58;;
62687;SDS011;48752;51.056;17.056;2023-04-21T05:23:28;38.53;;;20.58;;
62687;SDS011;48752;51.056;17.056;2023-04-21T05:25:55;33.03;;;18.55;;
62687;SDS011;48752;51.056;17.056;2023-04-21T05:28:21;30.90;;;19.17;;
62687;SDS011;48752;51.056;17.056;2023-04-21T05:30:47;34.17;;;19.05;;
62687;SDS011;48752;51.056;17.056;2023-04-21T05:33:17;35.47;;;20.02;;
62687;SDS011;48752;51.056;17.056;2023-04-21T05:35:43;36.60;;;18.08;;
62687;SDS011;48752;51.056;17.056;2023-04-21T05:38:10;33.25;;;17.60;;
62687;SDS011;48752;51.056;17.056;2023-04-21T05:40:36;28.88;;;16.83;;
62687;SDS011;48752;51.056;17.056;2023-04-21T05:43:16;31.83;;;16.50;;
62687;SDS011;48752;51.056;17.056;2023-04-21T05:45:44;32.20;;;16.88;;
62687;SDS011;48752;51.056;17.056;2023-04-21T05:48:10;30.00;;;17.50;;
62687;SDS011;48752;51.056;17.056;2023-04-21T05:50:37;28.80;;;16.52;;
62687;SDS011;48752;51.056;17.056;2023-04-21T05:53:02;34.25;;;15.95;;
62687;SDS011;48752;51.056;17.056;2023-04-21T05:55:27;34.03;;;16.00;;
62687;SDS011;48752;51.056;17.056;2023-04-21T05:57:54;30.85;;;15.18;;
62687;SDS011;48752;51.056;17.056;2023-04-21T06:00:19;27.55;;;16.30;;
62687;SDS011;48752;51.056;17.056;2023-04-21T06:02:45;25.65;;;15.80;;
62687;SDS011;48752;51.056;17.056;2023-04-21T06:05:11;26.60;;;16.33;;
62687;SDS011;48752;51.056;17.056;2023-04-21T06:07:37;27.67;;;14.95;;
62687;SDS011;48752;51.056;17.056;2023-04-21T06:10:04;28.90;;;15.68;;
62687;SDS011;48752;51.056;17.056;2023-04-21T06:12:30;27.42;;;15.52;;
62687;SDS011;48752;51.056;17.056;2023-04-21T06:14:57;25.73;;;16.00;;
62687;SDS011;48752;51.056;17.056;2023-04-21T06:17:23;24.45;;;15.68;;
62687;SDS011;48752;51.056;17.056;2023-04-21T06:19:50;23.17;;;15.65;;
62687;SDS011;48752;51.056;17.056;2023-04-21T06:22:23;24.90;;;15.45;;
62687;SDS011;48752;51.056;17.056;2023-04-21T06:24:50;27.95;;;14.93;;
62687;SDS011;48752;51.056;17.056;2023-04-21T06:27:16;28.98;;;15.30;;
62687;SDS011;48752;51.056;17.056;2023-04-21T06:29:53;25.33;;;14.85;;
62687;SDS011;48752;51.056;17.056;2023-04-21T06:32:20;25.98;;;15.05;;
62687;SDS011;48752;51.056;17.056;2023-04-21T06:34:47;32.00;;;15.10;;
62687;SDS011;48752;51.056;17.056;2023-04-21T06:37:13;23.02;;;13.15;;
62687;SDS011;48752;51.056;17.056;2023-04-21T06:39:47;23.73;;;14.10;;
62687;SDS011;48752;51.056;17.056;2023-04-21T06:42:13;27.35;;;14.82;;
62687;SDS011;48752;51.056;17.056;2023-04-21T06:44:40;21.13;;;13.15;;
62687;SDS011;48752;51.056;17.056;2023-04-21T06:47:05;22.52;;;13.55;;
62687;SDS011;48752;51.056;17.056;2023-04-21T06:49:30;25.80;;;13.73;;
62687;SDS011;48752;51.056;17.056;2023-04-21T06:51:58;20.90;;;13.55;;
62687;SDS011;48752;51.056;17.056;2023-04-21T06:54:24;25.40;;;13.38;;
62687;SDS011;48752;51.056;17.056;2023-04-21T06:56:52;24.67;;;13.85;;
62687;SDS011;48752;51.056;17.056;2023-04-21T06:59:19;22.88;;;13.30;;
62687;SDS011;48752;51.056;17.056;2023-04-21T07:01:45;19.95;;;14.75;;
62687;SDS011;48752;51.056;17.056;2023-04-21T07:04:17;18.77;;;13.20;;
62687;SDS011;48752;51.056;17.056;2023-04-21T07:06:44;20.05;;;14.23;;
62687;SDS011;48752;51.056;17.056;2023-04-21T07:09:10;20.20;;;13.45;;
62687;SDS011;48752;51.056;17.056;2023-04-21T07:11:36;20.45;;;13.82;;
62687;SDS011;48752;51.056;17.056;2023-04-21T07:14:01;16.98;;;13.32;;
62687;SDS011;48752;51.056;17.056;2023-04-21T07:16:27;18.20;;;13.15;;
62687;SDS011;48752;51.056;17.056;2023-04-21T07:18:53;25.20;;;15.00;;
62687;SDS011;48752;51.056;17.056;2023-04-21T07:21:18;17.15;;;13.50;;
62687;SDS011;48752;51.056;17.056;2023-04-21T07:23:44;18.00;;;12.93;;
62687;SDS011;48752;51.056;17.056;2023-04-21T07:26:10;16.58;;;12.70;;
62687;SDS011;48752;51.056;17.056;2023-04-21T07:28:36;21.45;;;13.15;;
62687;SDS011;48752;51.056;17.056;2023-04-21T07:31:03;18.65;;;13.10;;
62687;SDS011;48752;51.056;17.056;2023-04-21T07:33:28;20.05;;;13.05;;
62687;SDS011;48752;51.056;17.056;2023-04-21T07:35:55;19.48;;;13.70;;
62687;SDS011;48752;51.056;17.056;2023-04-21T07:38:21;21.63;;;12.93;;
62687;SDS011;48752;51.056;17.056;2023-04-21T07:40:47;20.30;;;13.00;;
62687;SDS011;48752;51.056;17.056;2023-04-21T07:43:13;18.25;;;12.77;;
62687;SDS011;48752;51.056;17.056;2023-04-21T07:45:38;17.23;;;13.02;;
62687;SDS011;48752;51.056;17.056;2023-04-21T07:48:03;17.00;;;12.30;;
62687;SDS011;48752;51.056;17.056;2023-04-21T07:50:30;16.95;;;13.55;;
62687;SDS011;48752;51.056;17.056;2023-04-21T07:52:56;22.48;;;13.25;;
62687;SDS011;48752;51.056;17.056;2023-04-21T07:55:21;19.65;;;13.18;;
62687;SDS011;48752;51.056;17.056;2023-04-21T07:57:46;18.20;;;13.43;;
62687;SDS011;48752;51.056;17.056;2023-04-21T08:00:13;16.20;;;11.70;;
62687;SDS011;48752;51.056;17.056;2023-04-21T08:02:39;17.55;;;11.98;;
62687;SDS011;48752;51.056;17.056;2023-04-21T08:05:04;14.10;;;12.13;;
62687;SDS011;48752;51.056;17.056;2023-04-21T08:07:30;21.02;;;13.45;;
62687;SDS011;48752;51.056;17.056;2023-04-21T08:09:55;18.67;;;11.82;;
62687;SDS011;48752;51.056;17.056;2023-04-21T08:12:21;17.75;;;12.20;;
62687;SDS011;48752;51.056;17.056;2023-04-21T08:14:46;15.98;;;11.90;;
62687;SDS011;48752;51.056;17.056;2023-04-21T08:17:12;14.15;;;11.70;;
62687;SDS011;48752;51.056;17.056;2023-04-21T08:19:37;17.15;;;12.20;;
62687;SDS011;48752;51.056;17.056;2023-04-21T08:22:02;18.83;;;11.18;;
62687;SDS011;48752;51.056;17.056;2023-04-21T08:24:28;15.90;;;11.27;;
62687;SDS011;48752;51.056;17.056;2023-04-21T08:26:53;14.02;;;11.18;;
62687;SDS011;48752;51.056;17.056;2023-04-21T08:29:19;16.02;;;11.93;;
62687;SDS011;48752;51.056;17.056;2023-04-21T08:31:44;18.50;;;11.32;;
62687;SDS011;48752;51.056;17.056;2023-04-21T08:34:10;17.73;;;11.40;;
62687;SDS011;48752;51.056;17.056;2023-04-21T08:36:35;17.05;;;12.35;;
62687;SDS011;48752;51.056;17.056;2023-04-21T08:39:01;20.23;;;12.27;;
62687;SDS011;48752;51.056;17.056;2023-04-21T08:41:26;15.75;;;12.07;;
62687;SDS011;48752;51.056;17.056;2023-04-21T08:43:52;17.92;;;12.50;;
62687;SDS011;48752;51.056;17.056;2023-04-21T08:46:17;16.77;;;11.88;;
62687;SDS011;48752;51.056;17.056;2023-04-21T08:48:43;16.90;;;12.10;;
62687;SDS011;48752;51.056;17.056;2023-04-21T08:51:10;17.65;;;11.77;;
62687;SDS011;48752;51.056;17.056;2023-04-21T08:53:36;14.30;;;11.77;;
62687;SDS011;48752;51.056;17.056;2023-04-21T08:56:02;13.98;;;9.73;;
62687;SDS011;48752;51.056;17.056;2023-04-21T08:58:28;12.30;;;9.48;;
62687;SDS011;48752;51.056;17.056;2023-04-21T09:00:53;13.13;;;10.60;;
62687;SDS011;48752;51.056;17.056;2023-04-21T09:03:22;15.60;;;10.52;;
62687;SDS011;48752;51.056;17.056;2023-04-21T09:05:58;20.75;;;10.23;;
62687;SDS011;48752;51.056;17.056;2023-04-21T09:08:29;15.43;;;10.60;;
62687;SDS011;48752;51.056;17.056;2023-04-21T09:10:56;14.95;;;10.45;;
62687;SDS011;48752;51.056;17.056;2023-04-21T09:13:28;15.60;;;8.95;;
62687;SDS011;48752;51.056;17.056;2023-04-21T09:15:58;11.60;;;9.60;;
62687;SDS011;48752;51.056;17.056;2023-04-21T09:18:24;16.02;;;10.02;;
62687;SDS011;48752;51.056;17.056;2023-04-21T09:20:53;13.13;;;10.43;;
62687;SDS011;48752;51.056;17.056;2023-04-21T09:23:29;8.38;;;7.55;;
62687;SDS011;48752;51.056;17.056;2023-04-21T09:25:55;9.77;;;7.45;;
62687;SDS011;48752;51.056;17.056;2023-04-21T09:28:20;12.27;;;8.45;;
62687;SDS011;48752;51.056;17.056;2023-04-21T09:30:46;14.98;;;9.32;;
62687;SDS011;48752;51.056;17.056;2023-04-21T09:33:15;16.30;;;9.55;;
62687;SDS011;48752;51.056;17.056;2023-04-21T09:35:42;15.57;;;10.02;;
62687;SDS011;48752;51.056;17.056;2023-04-21T09:38:11;14.18;;;9.95;;
62687;SDS011;48752;51.056;17.056;2023-04-21T09:40:36;12.60;;;9.43;;
62687;SDS011;48752;51.056;17.056;2023-04-21T09:43:02;12.30;;;9.32;;
62687;SDS011;48752;51.056;17.056;2023-04-21T09:45:29;20.63;;;9.48;;
62687;SDS011;48752;51.056;17.056;2023-04-21T09:47:55;12.65;;;7.45;;
62687;SDS011;48752;51.056;17.056;2023-04-21T09:50:22;11.15;;;7.30;;
62687;SDS011;48752;51.056;17.056;2023-04-21T09:52:52;11.02;;;8.02;;
62687;SDS011;48752;51.056;17.056;2023-04-21T09:55:18;13.30;;;7.57;;
62687;SDS011;48752;51.056;17.056;2023-04-21T09:57:51;9.30;;;8.10;;
62687;SDS011;48752;51.056;17.056;2023-04-21T10:00:17;13.20;;;8.88;;
62687;SDS011;48752;51.056;17.056;2023-04-21T10:02:49;15.02;;;10.20;;
62687;SDS011;48752;51.056;17.056;2023-04-21T10:05:15;11.57;;;8.60;;
62687;SDS011;48752;51.056;17.056;2023-04-21T10:07:42;12.95;;;8.55;;
62687;SDS011;48752;51.056;17.056;2023-04-21T10:10:15;17.00;;;8.95;;
62687;SDS011;48752;51.056;17.056;2023-04-21T10:12:52;13.43;;;8.38;;
62687;SDS011;48752;51.056;17.056;2023-04-21T10:15:31;11.10;;;8.10;;
62687;SDS011;48752;51.056;17.056;2023-04-21T10:18:14;16.90;;;7.70;;
62687;SDS011;48752;51.056;17.056;2023-04-21T10:25:54;11.68;;;7.75;;
62687;SDS011;48752;51.056;17.056;2023-04-21T10:28:51;14.00;;;8.90;;
62687;SDS011;48752;51.056;17.056;2023-04-21T10:31:19;12.70;;;7.60;;
62687;SDS011;48752;51.056;17.056;2023-04-21T10:36:31;15.13;;;8.38;;
62687;SDS011;48752;51.056;17.056;2023-04-21T10:39:06;12.27;;;7.80;;
62687;SDS011;48752;51.056;17.056;2023-04-21T10:41:34;13.85;;;7.82;;
62687;SDS011;48752;51.056;17.056;2023-04-21T10:46:36;9.82;;;7.70;;
62687;SDS011;48752;51.056;17.056;2023-04-21T10:49:09;10.60;;;7.32;;
62687;SDS011;48752;51.056;17.056;2023-04-21T10:54:23;11.93;;;6.88;;
62687;SDS011;48752;51.056;17.056;2023-04-21T10:56:54;9.90;;;6.65;;
62687;SDS011;48752;51.056;17.056;2023-04-21T10:59:20;15.82;;;6.78;;
62687;SDS011;48752;51.056;17.056;2023-04-21T11:01:46;10.45;;;6.07;;
62687;SDS011;48752;51.056;17.056;2023-04-21T11:04:12;8.15;;;5.40;;
62687;SDS011;48752;51.056;17.056;2023-04-21T11:06:38;10.32;;;6.00;;
62687;SDS011;48752;51.056;17.056;2023-04-21T11:09:04;7.95;;;5.30;;
62687;SDS011;48752;51.056;17.056;2023-04-21T11:11:29;10.65;;;6.03;;
62687;SDS011;48752;51.056;17.056;2023-04-21T11:13:55;9.10;;;5.88;;
62687;SDS011;48752;51.056;17.056;2023-04-21T11:16:24;7.57;;;6.43;;
62687;SDS011;48752;51.056;17.056;2023-04-21T11:18:49;12.93;;;6.93;;
62687;SDS011;48752;51.056;17.056;2023-04-21T11:21:16;11.55;;;6.38;;
62687;SDS011;48752;51.056;17.056;2023-04-21T11:23:46;12.32;;;7.10;;
62687;SDS011;48752;51.056;17.056;2023-04-21T11:26:16;15.05;;;6.75;;
62687;SDS011;48752;51.056;17.056;2023-04-21T11:28:46;10.18;;;6.75;;
62687;SDS011;48752;51.056;17.056;2023-04-21T11:31:11;10.18;;;6.97;;
62687;SDS011;48752;51.056;17.056;2023-04-21T11:33:37;8.82;;;6.40;;
62687;SDS011;48752;51.056;17.056;2023-04-21T11:36:06;8.25;;;5.72;;
62687;SDS011;48752;51.056;17.056;2023-04-21T11:38:38;9.55;;;6.53;;
62687;SDS011;48752;51.056;17.056;2023-04-21T11:41:07;9.25;;;6.47;;
62687;SDS011;48752;51.056;17.056;2023-04-21T11:43:36;13.80;;;7.43;;
62687;SDS011;48752;51.056;17.056;2023-04-21T11:46:22;9.23;;;6.30;;
62687;SDS011;48752;51.056;17.056;2023-04-21T11:49:03;15.02;;;7.05;;
62687;SDS011;48752;51.056;17.056;2023-04-21T11:53:59;9.15;;;5.72;;
62687;SDS011;48752;51.056;17.056;2023-04-21T11:56:25;10.18;;;5.90;;
62687;SDS011;48752;51.056;17.056;2023-04-21T11:58:51;9.93;;;6.28;;
62687;SDS011;48752;51.056;17.056;2023-04-21T12:01:17;8.02;;;5.80;;
62687;SDS011;48752;51.056;17.056;2023-04-21T12:03:50;7.65;;;6.85;;
62687;SDS011;48752;51.056;17.056;2023-04-21T12:06:19;12.20;;;7.97;;
62687;SDS011;48752;51.056;17.056;2023-04-21T12:09:00;11.60;;;7.85;;
62687;SDS011;48752;51.056;17.056;2023-04-21T12:11:27;14.18;;;7.78;;
62687;SDS011;48752;51.056;17.056;2023-04-21T12:13:55;9.55;;;7.22;;
62687;SDS011;48752;51.056;17.056;2023-04-21T12:16:27;7.80;;;5.65;;
62687;SDS011;48752;51.056;17.056;2023-04-21T12:18:53;8.20;;;6.00;;
62687;SDS011;48752;51.056;17.056;2023-04-21T12:21:19;10.48;;;5.97;;
62687;SDS011;48752;51.056;17.056;2023-04-21T12:23:45;17.67;;;7.95;;
62687;SDS011;48752;51.056;17.056;2023-04-21T12:26:10;13.20;;;6.85;;
62687;SDS011;48752;51.056;17.056;2023-04-21T12:28:36;13.10;;;6.20;;
62687;SDS011;48752;51.056;17.056;2023-04-21T12:31:02;10.88;;;6.13;;
62687;SDS011;48752;51.056;17.056;2023-04-21T12:33:28;9.68;;;6.15;;
62687;SDS011;48752;51.056;17.056;2023-04-21T12:35:53;10.25;;;6.22;;
62687;SDS011;48752;51.056;17.056;2023-04-21T12:38:19;10.68;;;6.53;;
62687;SDS011;48752;51.056;17.056;2023-04-21T12:40:44;8.35;;;6.75;;
62687;SDS011;48752;51.056;17.056;2023-04-21T12:43:09;12.25;;;6.13;;
62687;SDS011;48752;51.056;17.056;2023-04-21T12:45:35;8.48;;;5.80;;
62687;SDS011;48752;51.056;17.056;2023-04-21T12:48:00;18.15;;;7.60;;
62687;SDS011;48752;51.056;17.056;2023-04-21T12:50:28;8.50;;;6.53;;
62687;SDS011;48752;51.056;17.056;2023-04-21T12:52:53;9.23;;;6.05;;
62687;SDS011;48752;51.056;17.056;2023-04-21T12:55:20;10.98;;;6.07;;
62687;SDS011;48752;51.056;17.056;2023-04-21T12:57:46;11.10;;;6.03;;
62687;SDS011;48752;51.056;17.056;2023-04-21T13:00:11;9.50;;;6.97;;
62687;SDS011;48752;51.056;17.056;2023-04-21T13:02:39;7.80;;;5.78;;
62687;SDS011;48752;51.056;17.056;2023-04-21T13:05:05;8.07;;;5.70;;
62687;SDS011;48752;51.056;17.056;2023-04-21T13:07:32;11.18;;;6.07;;
62687;SDS011;48752;51.056;17.056;2023-04-21T13:09:58;7.38;;;5.57;;
62687;SDS011;48752;51.056;17.056;2023-04-21T13:12:23;8.45;;;5.97;;
62687;SDS011;48752;51.056;17.056;2023-04-21T13:14:49;10.02;;;6.30;;
62687;SDS011;48752;51.056;17.056;2023-04-21T13:17:15;11.82;;;6.40;;
62687;SDS011;48752;51.056;17.056;2023-04-21T13:19:40;12.43;;;6.07;;
62687;SDS011;48752;51.056;17.056;2023-04-21T13:22:06;9.68;;;6.30;;
62687;SDS011;48752;51.056;17.056;2023-04-21T13:24:31;9.48;;;6.07;;
62687;SDS011;48752;51.056;17.056;2023-04-21T13:26:57;9.65;;;6.03;;
62687;SDS011;48752;51.056;17.056;2023-04-21T13:29:23;8.02;;;6.45;;
62687;SDS011;48752;51.056;17.056;2023-04-21T13:31:53;10.80;;;5.93;;
62687;SDS011;48752;51.056;17.056;2023-04-21T13:34:18;8.07;;;6.25;;
62687;SDS011;48752;51.056;17.056;2023-04-21T13:36:43;7.93;;;5.88;;
62687;SDS011;48752;51.056;17.056;2023-04-21T13:39:09;10.43;;;6.60;;
62687;SDS011;48752;51.056;17.056;2023-04-21T13:41:35;9.88;;;6.00;;
62687;SDS011;48752;51.056;17.056;2023-04-21T13:44:00;11.40;;;6.25;;
62687;SDS011;48752;51.056;17.056;2023-04-21T13:46:25;9.85;;;5.60;;
62687;SDS011;48752;51.056;17.056;2023-04-21T13:48:51;10.02;;;5.80;;
62687;SDS011;48752;51.056;17.056;2023-04-21T13:51:17;6.63;;;5.38;;
62687;SDS011;48752;51.056;17.056;2023-04-21T13:53:42;8.13;;;5.88;;
62687;SDS011;48752;51.056;17.056;2023-04-21T13:56:08;7.15;;;6.00;;
62687;SDS011;48752;51.056;17.056;2023-04-21T13:58:35;7.20;;;5.70;;
62687;SDS011;48752;51.056;17.056;2023-04-21T14:01:01;6.10;;;4.82;;
62687;SDS011;48752;51.056;17.056;2023-04-21T14:03:27;8.77;;;5.13;;
62687;SDS011;48752;51.056;17.056;2023-04-21T14:05:54;7.40;;;4.63;;
62687;SDS011;48752;51.056;17.056;2023-04-21T14:08:19;5.50;;;4.95;;
62687;SDS011;48752;51.056;17.056;2023-04-21T14:10:45;5.60;;;4.63;;
62687;SDS011;48752;51.056;17.056;2023-04-21T14:13:10;7.32;;;4.68;;
62687;SDS011;48752;51.056;17.056;2023-04-21T14:15:36;6.40;;;4.75;;
62687;SDS011;48752;51.056;17.056;2023-04-21T14:18:01;8.55;;;4.85;;
62687;SDS011;48752;51.056;17.056;2023-04-21T14:20:27;6.78;;;4.90;;
62687;SDS011;48752;51.056;17.056;2023-04-21T14:22:53;7.30;;;4.53;;
62687;SDS011;48752;51.056;17.056;2023-04-21T14:25:18;7.60;;;5.15;;
62687;SDS011;48752;51.056;17.056;2023-04-21T14:27:44;5.85;;;4.25;;
62687;SDS011;48752;51.056;17.056;2023-04-21T14:30:09;5.80;;;4.32;;
62687;SDS011;48752;51.056;17.056;2023-04-21T14:32:35;7.10;;;4.93;;
62687;SDS011;48752;51.056;17.056;2023-04-21T14:35:01;6.55;;;4.95;;
62687;SDS011;48752;51.056;17.056;2023-04-21T14:37:27;7.82;;;4.85;;